createdAt,value
2019-01-03T00:02:26.800Z,0.96
2019-01-03T00:05:03.129Z,0.92
2019-01-03T00:07:38.796Z,1.01
2019-01-03T00:10:10.905Z,1.08
2019-01-03T00:12:48.271Z,1.17
2019-01-03T00:15:26.933Z,1.08
2019-01-03T00:18:26.250Z,1.08
2019-01-03T00:21:14.406Z,1.17
2019-01-03T00:23:52.584Z,1.17
2019-01-03T00:26:37.163Z,1.21
2019-01-03T00:29:27.322Z,1.14
2019-01-03T00:32:14.607Z,1.09
2019-01-03T00:34:52.210Z,1.09
2019-01-03T00:37:27.001Z,1.18
2019-01-03T00:40:13.122Z,1.13
2019-01-03T00:42:45.695Z,1.16
2019-01-03T00:45:21.262Z,1.19
2019-01-03T00:48:04.924Z,1.25
2019-01-03T00:50:39.304Z,1.18
2019-01-03T00:53:13.700Z,1.05
2019-01-03T00:56:01.566Z,1.04
2019-01-03T00:58:37.380Z,1.02
2019-01-03T01:01:24.860Z,1.07
2019-01-03T01:04:12.797Z,1.04
2019-01-03T01:07:04.588Z,1.00
2019-01-03T01:09:44.295Z,0.92
2019-01-03T01:12:35.987Z,0.88
2019-01-03T01:15:14.711Z,0.84
2019-01-03T01:18:04.902Z,0.87
2019-01-03T01:20:53.040Z,0.91
2019-01-03T01:26:23.604Z,0.79
2019-01-03T01:28:54.961Z,0.83
2019-01-03T01:31:47.103Z,0.89
2019-01-03T01:34:37.227Z,0.84
2019-01-03T01:37:18.301Z,0.70
2019-01-03T01:39:52.683Z,0.75
2019-01-03T01:42:40.623Z,0.64
2019-01-03T01:45:19.448Z,0.71
2019-01-03T01:47:51.031Z,0.57
2019-01-03T01:50:25.430Z,0.65
2019-01-03T01:53:13.157Z,0.66
2019-01-03T01:55:44.533Z,0.68
2019-01-03T01:58:16.068Z,0.73
2019-01-03T02:00:47.606Z,0.74
2019-01-03T02:03:39.685Z,0.77
2019-01-03T02:06:32.557Z,0.77
2019-01-03T02:09:13.926Z,0.70
2019-01-03T02:12:04.926Z,0.74
2019-01-03T02:14:43.406Z,0.76
2019-01-03T02:17:15.108Z,0.79
2019-01-03T02:19:49.614Z,0.74
2019-01-03T02:22:27.084Z,0.73
2019-01-03T02:24:58.701Z,0.77
2019-01-03T02:27:36.311Z,0.76
2019-01-03T02:30:27.028Z,0.77
2019-01-03T02:33:14.687Z,0.64
2019-01-03T02:36:01.172Z,0.59
2019-01-03T02:38:38.568Z,0.57
2019-01-03T02:41:10.219Z,0.60
2019-01-03T02:43:44.847Z,0.67
2019-01-03T02:46:35.955Z,0.83
2019-01-03T02:49:25.961Z,0.77
2019-01-03T02:52:09.889Z,0.68
2019-01-03T02:54:48.306Z,0.81
2019-01-03T02:57:27.955Z,0.79
2019-01-03T03:00:16.202Z,0.73
2019-01-03T03:03:06.067Z,0.66
2019-01-03T03:05:46.310Z,0.46
2019-01-03T03:08:33.664Z,0.56
2019-01-03T03:11:10.843Z,0.60
2019-01-03T03:13:42.335Z,0.64
2019-01-03T03:16:33.416Z,0.71
2019-01-03T03:19:08.566Z,0.63
2019-01-03T03:21:49.580Z,0.58
2019-01-03T03:24:24.066Z,0.46
2019-01-03T03:27:15.271Z,0.34
2019-01-03T03:29:46.817Z,0.24
2019-01-03T03:32:21.141Z,0.37
2019-01-03T03:34:52.684Z,0.33
2019-01-03T03:37:30.380Z,0.35
2019-01-03T03:40:04.912Z,0.32
2019-01-03T03:42:52.441Z,0.32
2019-01-03T03:45:31.168Z,0.31
2019-01-03T03:48:08.556Z,0.34
2019-01-03T03:50:42.827Z,0.42
2019-01-03T03:53:17.568Z,0.32
2019-01-03T03:55:55.160Z,0.34
2019-01-03T03:58:29.604Z,0.36
2019-01-03T04:01:04.248Z,0.38
2019-01-03T04:03:41.925Z,0.42
2019-01-03T04:06:14.619Z,0.65
2019-01-03T04:08:56.509Z,0.72
2019-01-03T04:11:45.918Z,0.78
2019-01-03T04:14:38.342Z,0.77
2019-01-03T04:17:21.098Z,0.91
2019-01-03T04:20:01.193Z,0.87
2019-01-03T04:22:49.296Z,0.91
2019-01-03T04:25:23.691Z,0.94
2019-01-03T04:28:03.223Z,0.92
2019-01-03T04:30:51.054Z,0.80
2019-01-03T04:33:26.544Z,0.83
2019-01-03T04:36:01.111Z,0.81
2019-01-03T04:38:48.046Z,0.66
2019-01-03T04:41:37.943Z,0.50
2019-01-03T04:44:21.959Z,0.48
2019-01-03T04:47:11.459Z,0.50
2019-01-03T04:49:59.285Z,0.53
2019-01-03T04:52:32.186Z,0.60
2019-01-03T04:55:08.100Z,0.63
2019-01-03T04:57:56.374Z,0.71
2019-01-03T05:00:44.393Z,0.56
2019-01-03T05:03:35.160Z,0.57
2019-01-03T05:06:13.704Z,0.53
2019-01-03T05:08:51.163Z,0.34
2019-01-03T05:11:43.956Z,0.25
2019-01-03T05:14:23.192Z,0.39
2019-01-03T05:16:59.705Z,0.30
2019-01-03T05:19:31.738Z,0.28
2019-01-03T05:22:12.290Z,0.40
2019-01-03T05:24:51.525Z,0.31
2019-01-03T05:27:26.080Z,0.36
2019-01-03T05:29:58.672Z,0.26
2019-01-03T05:32:47.564Z,0.25
2019-01-03T05:35:23.008Z,0.30
2019-01-03T05:37:59.407Z,0.28
2019-01-03T05:40:39.984Z,0.21
2019-01-03T05:43:14.521Z,0.10
2019-01-03T05:45:47.791Z,-0.08
2019-01-03T05:48:31.467Z,-0.17
2019-01-03T05:51:21.006Z,-0.18
2019-01-03T05:53:52.645Z,-0.05
2019-01-03T05:59:38.296Z,-0.03
2019-01-03T06:02:29.173Z,-0.12
2019-01-03T06:05:02.837Z,-0.23
2019-01-03T06:07:43.767Z,-0.38
2019-01-03T06:10:16.280Z,-0.35
2019-01-03T06:13:05.944Z,-0.29
2019-01-03T06:15:53.955Z,-0.24
2019-01-03T06:18:25.413Z,-0.40
2019-01-03T06:21:12.224Z,-0.42
2019-01-03T06:23:49.635Z,-0.37
2019-01-03T06:26:31.845Z,-0.41
2019-01-03T06:29:04.800Z,-0.44
2019-01-03T06:31:36.184Z,-0.45
2019-01-03T06:34:12.407Z,-0.40
2019-01-03T06:36:52.643Z,-0.42
2019-01-03T06:39:30.685Z,-0.39
2019-01-03T06:42:06.425Z,-0.60
2019-01-03T06:44:55.706Z,-0.64
2019-01-03T06:47:38.615Z,-0.50
2019-01-03T06:50:14.472Z,-0.41
2019-01-03T06:52:53.355Z,-0.43
2019-01-03T06:55:43.755Z,-0.53
2019-01-03T06:58:33.310Z,-0.37
2019-01-03T07:01:10.580Z,-0.35
2019-01-03T07:03:42.229Z,-0.30
2019-01-03T07:06:31.842Z,0.10
2019-01-03T07:09:19.829Z,0.32
2019-01-03T07:12:01.065Z,0.77
2019-01-03T07:14:40.527Z,1.14
2019-01-03T07:17:26.343Z,1.49
2019-01-03T07:19:58.115Z,1.87
2019-01-03T07:22:38.673Z,2.26
2019-01-03T07:25:26.917Z,2.47
2019-01-03T07:31:13.829Z,3.05
2019-01-03T07:34:04.256Z,3.40
2019-01-03T07:36:41.368Z,3.38
2019-01-03T07:42:41.042Z,3.97
2019-01-03T07:45:31.192Z,3.97
2019-01-03T07:48:21.150Z,4.37
2019-01-03T07:51:07.360Z,4.37
2019-01-03T07:53:55.011Z,4.50
2019-01-03T07:56:45.401Z,5.04
2019-01-03T07:59:27.073Z,5.11
2019-01-03T08:02:15.104Z,5.45
2019-01-03T08:04:58.844Z,5.62
2019-01-03T08:07:46.269Z,5.77
2019-01-03T08:10:22.266Z,6.53
2019-01-03T08:13:11.769Z,6.38
2019-01-03T08:15:49.109Z,6.26
2019-01-03T08:18:23.658Z,6.82
2019-01-03T08:21:12.149Z,7.06
2019-01-03T08:23:56.224Z,7.25
2019-01-03T08:29:36.082Z,7.40
2019-01-03T08:32:14.196Z,7.84
2019-01-03T08:34:59.063Z,8.13
2019-01-03T08:37:46.996Z,8.08
2019-01-03T08:40:26.456Z,8.79
2019-01-03T08:43:15.061Z,9.17
2019-01-03T08:45:52.671Z,9.29
2019-01-03T08:48:24.157Z,9.42
2019-01-03T08:51:14.046Z,9.24
2019-01-03T08:54:01.524Z,9.18
2019-01-03T08:56:36.013Z,9.29
2019-01-03T08:59:07.940Z,9.15
2019-01-03T09:01:39.396Z,9.48
2019-01-03T09:04:13.992Z,9.40
2019-01-03T09:06:50.821Z,9.50
2019-01-03T09:09:23.950Z,9.51
2019-01-03T09:12:07.331Z,9.97
2019-01-03T09:14:51.569Z,9.53
2019-01-03T09:17:22.927Z,9.67
2019-01-03T09:20:09.632Z,9.55
2019-01-03T09:22:50.501Z,9.60
2019-01-03T09:25:30.855Z,10.10
2019-01-03T09:28:18.395Z,10.42
2019-01-03T09:31:06.424Z,10.40
2019-01-03T09:33:44.665Z,10.86
2019-01-03T09:36:32.267Z,10.35
2019-01-03T09:39:07.724Z,10.35
2019-01-03T09:41:51.939Z,10.20
2019-01-03T09:44:43.281Z,10.42
2019-01-03T09:47:13.963Z,10.59
2019-01-03T09:49:43.834Z,10.27
2019-01-03T09:52:19.885Z,10.31
2019-01-03T09:54:49.684Z,10.61
2019-01-03T09:57:19.503Z,10.27
2019-01-03T09:59:49.640Z,10.63
2019-01-03T10:02:23.716Z,11.04
2019-01-03T10:04:53.770Z,10.74
2019-01-03T10:07:24.691Z,11.04
2019-01-03T10:09:54.621Z,11.30
2019-01-03T10:12:24.755Z,11.43
2019-01-03T10:14:54.533Z,11.18
2019-01-03T10:17:27.633Z,11.68
2019-01-03T10:19:57.588Z,11.59
2019-01-03T10:22:27.385Z,11.51
2019-01-03T10:24:57.521Z,10.95
2019-01-03T10:27:27.401Z,11.33
2019-01-03T10:29:57.171Z,11.39
2019-01-03T10:32:29.991Z,11.04
2019-01-03T10:35:00.046Z,10.90
2019-01-03T10:37:30.151Z,10.42
2019-01-03T10:40:00.186Z,10.05
2019-01-03T10:42:30.088Z,10.14
2019-01-03T10:45:00.516Z,10.74
2019-01-03T10:47:32.277Z,11.31
2019-01-03T10:50:02.299Z,11.56
2019-01-03T10:52:32.230Z,10.69
2019-01-03T10:55:02.463Z,10.64
2019-01-03T10:57:32.358Z,10.07
2019-01-03T11:00:02.179Z,9.56
2019-01-03T11:02:32.396Z,9.47
2019-01-03T11:05:02.328Z,10.11
2019-01-03T11:07:33.651Z,9.42
2019-01-03T11:10:03.501Z,8.92
2019-01-03T11:12:33.405Z,8.66
2019-01-03T11:15:03.420Z,9.06
2019-01-03T11:17:33.723Z,9.89
2019-01-03T11:20:03.852Z,10.57
2019-01-03T11:22:33.760Z,10.90
2019-01-03T11:25:05.751Z,10.76
2019-01-03T11:27:35.604Z,10.12
2019-01-03T11:30:08.732Z,10.39
2019-01-03T11:32:38.733Z,9.60
2019-01-03T11:35:09.076Z,8.45
2019-01-03T11:37:40.871Z,7.18
2019-01-03T11:40:10.868Z,7.81
2019-01-03T11:42:42.855Z,8.86
2019-01-03T11:45:20.396Z,8.05
2019-01-03T11:47:50.251Z,8.80
2019-01-03T11:50:21.769Z,7.95
2019-01-03T11:52:51.693Z,7.41
2019-01-03T11:55:22.605Z,6.58
2019-01-03T11:57:52.546Z,6.58
2019-01-03T12:00:22.578Z,7.03
2019-01-03T12:03:01.720Z,7.03
2019-01-03T12:05:33.376Z,7.15
2019-01-03T12:08:03.333Z,7.03
2019-01-03T12:10:33.076Z,6.79
2019-01-03T12:13:02.910Z,5.59
2019-01-03T12:15:33.131Z,6.05
2019-01-03T12:18:03.264Z,6.59
2019-01-03T12:20:33.706Z,7.71
2019-01-03T12:23:04.004Z,7.65
2019-01-03T12:25:33.834Z,7.27
2019-01-03T12:28:03.949Z,7.40
2019-01-03T12:30:33.872Z,7.18
2019-01-03T12:33:03.624Z,7.83
2019-01-03T12:35:33.585Z,7.46
2019-01-03T12:38:04.494Z,7.30
2019-01-03T12:40:34.351Z,7.27
2019-01-03T12:43:04.196Z,8.29
2019-01-03T12:45:34.282Z,7.44
2019-01-03T12:48:04.326Z,6.97
2019-01-03T12:50:34.214Z,8.09
2019-01-03T12:53:04.116Z,8.35
2019-01-03T12:55:34.061Z,8.05
2019-01-03T12:58:03.909Z,8.33
2019-01-03T13:00:33.983Z,8.05
2019-01-03T13:03:07.929Z,8.98
2019-01-03T13:05:38.308Z,8.98
2019-01-03T13:08:08.349Z,8.35
2019-01-03T13:10:38.129Z,8.33
2019-01-03T13:13:08.117Z,8.34
2019-01-03T13:15:37.914Z,8.53
2019-01-03T13:18:07.861Z,8.76
2019-01-03T13:20:37.730Z,7.67
2019-01-03T13:23:07.549Z,7.74
2019-01-03T13:25:37.320Z,8.41
2019-01-03T13:28:07.351Z,8.78
2019-01-03T13:30:37.203Z,8.72
2019-01-03T13:33:07.114Z,7.43
2019-01-03T13:35:37.029Z,7.43
2019-01-03T13:38:08.486Z,7.46
2019-01-03T13:40:38.260Z,7.40
2019-01-03T13:43:08.115Z,7.24
2019-01-03T13:45:40.187Z,7.06
2019-01-03T13:48:10.769Z,6.17
2019-01-03T13:50:40.923Z,5.54
2019-01-03T13:53:11.045Z,4.89
2019-01-03T13:55:41.075Z,4.89
2019-01-03T13:58:11.183Z,4.89
2019-01-03T14:00:41.267Z,4.88
2019-01-03T14:03:14.204Z,5.02
2019-01-03T14:05:44.669Z,5.02
2019-01-03T14:08:14.647Z,4.98
2019-01-03T14:10:44.451Z,4.98
2019-01-03T14:13:41.902Z,4.64
2019-01-03T14:16:51.105Z,4.40
2019-01-03T14:19:54.497Z,4.40
2019-01-03T14:23:17.867Z,4.31
2019-01-03T14:26:27.654Z,4.27
2019-01-03T14:29:28.484Z,4.22
2019-01-03T14:32:38.138Z,4.18
2019-01-03T14:36:08.564Z,4.24
2019-01-03T14:39:26.424Z,4.20
2019-01-03T14:42:28.777Z,3.98
2019-01-03T14:45:42.220Z,4.03
2019-01-03T14:48:18.637Z,3.99
2019-01-03T14:50:48.594Z,3.84
2019-01-03T14:53:19.109Z,3.84
2019-01-03T14:55:49.912Z,3.85
2019-01-03T14:58:22.328Z,3.77
2019-01-03T15:00:53.938Z,3.74
2019-01-03T15:03:25.001Z,3.64
2019-01-03T15:05:55.272Z,3.62
2019-01-03T15:08:25.386Z,3.59
2019-01-03T15:10:55.324Z,3.65
2019-01-03T15:13:25.403Z,3.65
2019-01-03T15:15:57.902Z,3.59
2019-01-03T15:18:28.355Z,3.49
2019-01-03T15:20:58.476Z,3.39
2019-01-03T15:23:29.668Z,3.39
2019-01-03T15:26:04.274Z,3.30
2019-01-03T15:28:34.253Z,3.36
2019-01-03T15:31:04.166Z,3.22
2019-01-03T15:33:34.088Z,3.17
2019-01-03T15:36:05.328Z,3.15
2019-01-03T15:38:36.366Z,3.15
2019-01-03T15:41:06.277Z,3.00
2019-01-03T15:43:36.434Z,2.79
2019-01-03T15:46:06.360Z,2.98
2019-01-03T15:48:36.443Z,2.93
2019-01-03T15:51:06.378Z,2.79
2019-01-03T15:53:38.377Z,2.75
2019-01-03T15:56:10.125Z,2.82
2019-01-03T15:58:41.298Z,2.65
2019-01-03T16:01:11.320Z,2.62
2019-01-03T16:03:44.277Z,2.50
2019-01-03T16:06:14.377Z,2.53
2019-01-03T16:08:45.058Z,2.48
2019-01-03T16:11:15.019Z,2.38
2019-01-03T16:13:45.130Z,2.40
2019-01-03T16:16:17.329Z,2.28
2019-01-03T16:18:47.596Z,2.24
2019-01-03T16:21:18.059Z,2.32
2019-01-03T16:23:48.455Z,2.44
2019-01-03T16:26:18.954Z,2.37
2019-01-03T16:28:48.931Z,2.26
2019-01-03T16:31:18.883Z,2.15
2019-01-03T16:33:48.973Z,2.24
2019-01-03T16:36:19.186Z,2.02
2019-01-03T16:38:49.414Z,1.95
2019-01-03T16:41:19.338Z,1.90
2019-01-03T16:43:51.098Z,1.75
2019-01-03T16:46:21.309Z,1.57
2019-01-03T16:48:54.119Z,1.53
2019-01-03T16:51:24.233Z,1.53
2019-01-03T16:53:54.129Z,1.43
2019-01-03T16:56:24.460Z,1.63
2019-01-03T16:58:54.479Z,1.79
2019-01-03T17:01:24.934Z,1.66
2019-01-03T17:03:58.274Z,1.56
2019-01-03T17:06:29.233Z,1.59
2019-01-03T17:08:59.256Z,1.65
2019-01-03T17:11:30.295Z,1.64
2019-01-03T17:14:00.330Z,1.74
2019-01-03T17:16:32.258Z,1.64
2019-01-03T17:19:03.729Z,1.54
2019-01-03T17:21:33.523Z,1.51
2019-01-03T17:24:03.952Z,1.40
2019-01-03T17:26:33.744Z,1.45
2019-01-03T17:29:04.331Z,1.48
2019-01-03T17:31:40.221Z,1.53
2019-01-03T17:34:10.340Z,1.47
2019-01-03T17:36:43.005Z,1.42
2019-01-03T17:39:13.621Z,1.35
2019-01-03T17:41:44.733Z,1.37
2019-01-03T17:44:14.562Z,1.28
2019-01-03T17:46:49.711Z,1.20
2019-01-03T17:49:20.794Z,1.10
2019-01-03T17:51:55.866Z,0.95
2019-01-03T17:54:26.514Z,0.98
2019-01-03T17:57:02.641Z,0.76
2019-01-03T17:59:32.902Z,0.64
2019-01-03T18:02:02.752Z,0.64
2019-01-03T18:04:32.635Z,0.70
2019-01-03T18:07:07.858Z,0.80
2019-01-03T18:09:39.220Z,0.64
2019-01-03T18:12:09.018Z,0.45
2019-01-03T18:14:39.044Z,0.51
2019-01-03T18:17:14.505Z,0.14
2019-01-03T18:19:46.255Z,-0.08
2019-01-03T18:22:16.020Z,-0.17
2019-01-03T18:24:45.891Z,-0.31
2019-01-03T18:27:19.011Z,-0.46
2019-01-03T18:29:49.670Z,-0.48
2019-01-03T18:32:23.443Z,-0.34
2019-01-03T18:34:54.544Z,-0.18
2019-01-03T18:37:30.421Z,-0.15
2019-01-03T18:40:01.822Z,-0.31
2019-01-03T18:42:31.606Z,-0.55
2019-01-03T18:45:03.342Z,-0.66
2019-01-03T18:47:33.251Z,-0.63
2019-01-03T18:50:03.458Z,-0.58
2019-01-03T18:52:35.424Z,-0.34
2019-01-03T18:55:07.198Z,-0.17
2019-01-03T18:57:37.518Z,0.02
2019-01-03T19:00:13.630Z,-0.27
2019-01-03T19:02:43.480Z,-0.20
2019-01-03T19:05:14.443Z,-0.34
2019-01-03T19:07:44.196Z,-0.20
2019-01-03T19:10:14.700Z,-0.05
2019-01-03T19:12:44.582Z,0.06
2019-01-03T19:15:14.604Z,-0.05
2019-01-03T19:17:44.395Z,0.03
2019-01-03T19:20:14.792Z,-0.01
2019-01-03T19:22:44.564Z,0.14
2019-01-03T19:25:17.536Z,0.11
2019-01-03T19:27:48.277Z,0.31
2019-01-03T19:30:18.871Z,0.21
2019-01-03T19:32:48.662Z,0.00
2019-01-03T19:35:18.434Z,-0.08
2019-01-03T19:37:48.999Z,-0.18
2019-01-03T19:40:18.802Z,0.19
2019-01-03T19:42:48.594Z,0.08
2019-01-03T19:45:18.398Z,0.03
2019-01-03T19:47:51.741Z,0.07
2019-01-03T19:50:22.477Z,0.05
2019-01-03T19:52:52.280Z,0.07
2019-01-03T19:55:22.011Z,-0.06
2019-01-03T19:57:53.285Z,-0.22
2019-01-03T20:00:23.109Z,-0.01
2019-01-03T20:02:52.921Z,-0.17
2019-01-03T20:05:22.709Z,-0.10
2019-01-03T20:07:52.560Z,-0.35
2019-01-03T20:10:22.484Z,-0.74
2019-01-03T20:12:53.333Z,-0.95
2019-01-03T20:15:23.124Z,-0.92
2019-01-03T20:17:53.046Z,-1.01
2019-01-03T20:20:22.867Z,-1.05
2019-01-03T20:22:53.796Z,-1.19
2019-01-03T20:25:23.727Z,-1.41
2019-01-03T20:27:54.588Z,-1.66
2019-01-03T20:30:24.468Z,-1.51
2019-01-03T20:32:54.599Z,-1.36
2019-01-03T20:35:24.399Z,-1.30
2019-01-03T20:37:54.213Z,-1.54
2019-01-03T20:40:24.017Z,-1.49
2019-01-03T20:42:54.863Z,-1.41
2019-01-03T20:45:24.888Z,-1.45
2019-01-03T20:47:54.861Z,-1.27
2019-01-03T20:50:25.098Z,-1.39
2019-01-03T20:52:55.107Z,-1.29
2019-01-03T20:55:25.168Z,-1.32
2019-01-03T20:57:55.015Z,-1.26
2019-01-03T21:00:24.895Z,-1.23
2019-01-03T21:02:59.098Z,-1.38
2019-01-03T21:05:30.363Z,-1.64
2019-01-03T21:08:00.392Z,-1.61
2019-01-03T21:10:31.814Z,-1.66
2019-01-03T21:13:01.844Z,-1.71
2019-01-03T21:15:31.693Z,-1.32
2019-01-03T21:18:01.487Z,-1.40
2019-01-03T21:20:31.388Z,-1.45
2019-01-03T21:23:01.355Z,-1.46
2019-01-03T21:25:31.312Z,-1.54
2019-01-03T21:28:02.065Z,-1.60
2019-01-03T21:30:32.465Z,-1.65
2019-01-03T21:33:03.857Z,-1.67
2019-01-03T21:35:33.735Z,-1.66
2019-01-03T21:38:05.105Z,-1.87
2019-01-03T21:40:35.872Z,-2.15
2019-01-03T21:43:06.454Z,-2.27
2019-01-03T21:45:36.267Z,-2.16
2019-01-03T21:48:06.205Z,-2.16
2019-01-03T21:50:36.201Z,-1.85
2019-01-03T21:53:06.113Z,-1.78
2019-01-03T21:55:36.081Z,-1.65
2019-01-03T21:58:06.114Z,-1.53
2019-01-03T22:00:35.963Z,-1.65
2019-01-03T22:03:09.203Z,-1.77
2019-01-03T22:05:39.645Z,-1.89
2019-01-03T22:08:09.602Z,-1.94
2019-01-03T22:10:39.506Z,-1.90
2019-01-03T22:13:09.844Z,-1.98
2019-01-03T22:15:39.825Z,-1.99
2019-01-03T22:18:09.893Z,-2.02
2019-01-03T22:20:39.839Z,-2.05
2019-01-03T22:23:09.714Z,-1.80
2019-01-03T22:25:39.782Z,-1.81
2019-01-03T22:28:09.758Z,-1.73
2019-01-03T22:30:40.617Z,-1.81
2019-01-03T22:33:10.390Z,-1.84
2019-01-03T22:35:40.511Z,-2.18
2019-01-03T22:38:10.412Z,-2.67
2019-01-03T22:40:40.588Z,-2.98
2019-01-03T22:43:10.871Z,-3.05
2019-01-03T22:45:44.995Z,-2.96
2019-01-03T22:48:17.703Z,-2.70
2019-01-03T22:50:48.775Z,-2.54
2019-01-03T22:53:20.403Z,-2.48
2019-01-03T22:55:54.247Z,-2.43
2019-01-03T22:58:24.054Z,-2.43
2019-01-03T23:00:55.213Z,-2.41
2019-01-03T23:03:25.318Z,-2.51
2019-01-03T23:05:55.197Z,-2.99
2019-01-03T23:08:25.053Z,-3.50
2019-01-03T23:10:56.454Z,-3.42
2019-01-03T23:13:26.266Z,-3.45
2019-01-03T23:15:56.168Z,-3.71
2019-01-03T23:18:31.394Z,-3.78
2019-01-03T23:20:58.148Z,-3.77
2019-01-03T23:23:28.480Z,-3.97
2019-01-03T23:25:58.661Z,-3.92
2019-01-03T23:28:28.818Z,-3.35
2019-01-03T23:30:58.937Z,-2.91
2019-01-03T23:33:28.717Z,-2.76
2019-01-03T23:35:58.511Z,-2.89
2019-01-03T23:38:30.993Z,-2.85
2019-01-03T23:41:03.251Z,-1.98
2019-01-03T23:43:33.654Z,-1.53
2019-01-03T23:46:04.692Z,-1.42
2019-01-03T23:48:35.324Z,-1.35
2019-01-03T23:51:06.279Z,-1.65
2019-01-03T23:53:36.474Z,-1.80
2019-01-03T23:56:13.396Z,-1.88
2019-01-03T23:58:44.576Z,-1.96
